Warren, VT (05674)

12:05 PM EDT on April 26, 2017 (GMT -0400)
Mad View Acres | | Change Station

Elev 1330 ft 44.11 °N, 72.85 °W | Updated 15 seconds ago

Overcast
Overcast
53.2 °F
Feels Like 53.2 °F
N
1.0
Wind Variable Wind from North

Today
High -- | Low -- °F
--% Chance of Precip.
Yesterday
High -- | Low -- °F
Precip. -- in
Pressure 29.87 in
Visibility 10.0 miles
Clouds Scattered Clouds 1700 ft
Mostly Cloudy 4700 ft
Overcast 5500 ft
Dew Point 50 °F
Humidity 89%
Rainfall 0.04 in
Snow Depth Not available.
5:49 AM 7:49 PM
New Moon, 0% visible
METAR K6B0 261555Z AUTO 24003KT 10SM SCT017 BKN047 OVC055 15/11 A2987 RMK AO2 T01530113
Pressure 29.87 in
Visibility 10.0 miles
Clouds Scattered Clouds 1700 ft
Mostly Cloudy 4700 ft
Overcast 5500 ft
Dew Point 50 °F
Humidity 89%
Rainfall 0.04 in
Snow Depth Not available.
5:49 AM 7:49 PM
New Moon, 0% visible
METAR K6B0 261555Z AUTO 24003KT 10SM SCT017 BKN047 OVC055 15/11 A2987 RMK AO2 T01530113

Get Severe Weather Alerts

Thanks for signing up!

Be on the lookout for a verification email in your inbox.

You'll start receiving the daily forecast at 8 AM.

×

10-Day Weather Forecast

Almanac

Astronomy

Apr. 26, 2017 Rise Set
Actual Time
Civil Twilight
Nautical Twilight
Astronomical Twilight
Moon
Length of Visible Light
Length of Day
Tomorrow will be .
, % of the Moon is Illuminated

Today's Extremes

State Highs State Lows

Community

WunderPhotos

WunderBlog® & News

Nearby

Air Quality

  Air Quality AQ Index Pollutant
Not available.

Snow Depth

Station Depth Elevation

Earthquake Activity

City Distance Mag. Time & Date
Minimum magnitude displayed is 2.5.

Coastal Water Temperatures

Place Temperature

Stations

Nearby Weather Stations

Station Location Temp. Windchill Dew Point Humidity Wind Precip. Elev Updated Type
                   

Watches & Warnings

There are currently no watches in effect.